createdAt,value
2023-04-30T00:01:38.782Z,9.35
2023-04-30T00:04:25.795Z,8.88
2023-04-30T00:07:12.983Z,8.70
2023-04-30T00:09:59.803Z,8.25
2023-04-30T00:12:46.676Z,10.20
2023-04-30T00:15:33.518Z,9.87
2023-04-30T00:18:23.331Z,9.23
2023-04-30T00:21:10.518Z,9.20
2023-04-30T00:23:57.459Z,7.22
2023-04-30T00:26:44.307Z,8.43
2023-04-30T00:29:33.692Z,7.53
2023-04-30T00:32:20.512Z,9.85
2023-04-30T00:35:09.374Z,8.93
2023-04-30T00:37:56.189Z,9.15
2023-04-30T00:40:44.287Z,10.73
2023-04-30T00:43:34.500Z,9.60
2023-04-30T00:46:21.716Z,9.77
2023-04-30T00:49:11.950Z,10.70
2023-04-30T00:51:58.839Z,10.15
2023-04-30T00:54:48.240Z,9.83
2023-04-30T00:57:36.377Z,9.38
2023-04-30T01:00:29.113Z,10.98
2023-04-30T01:03:16.378Z,12.70
2023-04-30T01:06:03.568Z,9.52
2023-04-30T01:08:50.826Z,9.05
2023-04-30T01:12:19.579Z,10.93
2023-04-30T01:15:12.199Z,11.32
2023-04-30T01:18:20.717Z,11.70
2023-04-30T01:21:08.525Z,11.75
2023-04-30T01:24:25.851Z,11.10
2023-04-30T01:27:46.537Z,9.75
2023-04-30T01:30:34.507Z,9.43
2023-04-30T01:33:23.962Z,10.15
2023-04-30T01:36:21.860Z,11.57
2023-04-30T01:39:29.601Z,11.20
2023-04-30T01:42:23.999Z,8.45
2023-04-30T01:45:37.915Z,11.38
2023-04-30T01:48:47.921Z,10.45
2023-04-30T01:51:45.993Z,10.82
2023-04-30T01:54:51.343Z,11.02
2023-04-30T01:57:44.022Z,10.90
2023-04-30T02:00:31.073Z,10.00
2023-04-30T02:03:18.343Z,12.75
2023-04-30T02:06:05.320Z,12.05
2023-04-30T02:08:52.159Z,12.53
2023-04-30T02:11:39.127Z,11.10
2023-04-30T02:14:26.069Z,13.50
2023-04-30T02:17:12.903Z,14.10
2023-04-30T02:20:00.354Z,14.20
2023-04-30T02:22:48.005Z,13.43
2023-04-30T02:25:38.028Z,10.95
2023-04-30T02:28:24.875Z,12.20
2023-04-30T02:31:11.789Z,12.43
2023-04-30T02:33:58.639Z,13.10
2023-04-30T02:36:45.589Z,14.30
2023-04-30T02:39:32.532Z,12.00
2023-04-30T02:42:19.551Z,12.57
2023-04-30T02:45:06.872Z,13.97
2023-04-30T02:47:53.741Z,12.32
2023-04-30T02:50:40.644Z,13.93
2023-04-30T02:53:27.518Z,13.13
2023-04-30T02:56:14.452Z,13.93
2023-04-30T02:59:01.445Z,15.77
2023-04-30T03:01:48.254Z,14.98
2023-04-30T03:04:35.135Z,14.80
2023-04-30T03:07:22.034Z,14.93
2023-04-30T03:10:09.546Z,15.30
2023-04-30T03:12:56.480Z,14.77
2023-04-30T03:15:43.290Z,14.60
2023-04-30T03:18:30.380Z,17.92
2023-04-30T03:21:17.303Z,17.88
2023-04-30T03:24:04.283Z,14.93
2023-04-30T03:26:51.397Z,18.17
2023-04-30T03:29:38.231Z,17.30
2023-04-30T03:32:25.227Z,16.23
2023-04-30T03:35:12.066Z,15.40
2023-04-30T03:37:58.938Z,17.33
2023-04-30T03:40:45.947Z,17.50
2023-04-30T03:43:32.783Z,15.48
2023-04-30T03:46:19.693Z,13.45
2023-04-30T03:49:06.630Z,14.95
2023-04-30T03:51:53.590Z,14.13
2023-04-30T03:54:40.482Z,14.07
2023-04-30T03:57:27.337Z,14.83
2023-04-30T04:00:14.551Z,14.13
2023-04-30T04:03:01.541Z,14.35
2023-04-30T04:05:48.761Z,14.20
2023-04-30T04:08:36.724Z,12.65
2023-04-30T04:11:23.682Z,12.95
2023-04-30T04:14:11.710Z,11.80
2023-04-30T04:17:00.127Z,11.35
2023-04-30T04:19:46.922Z,13.07
2023-04-30T04:22:33.784Z,13.05
2023-04-30T04:25:20.595Z,12.80
2023-04-30T04:28:07.750Z,11.88
2023-04-30T04:30:54.550Z,10.45
2023-04-30T04:33:41.391Z,12.30
2023-04-30T04:36:28.834Z,11.57
2023-04-30T04:39:16.029Z,11.60
2023-04-30T04:42:03.101Z,13.05
2023-04-30T04:44:49.985Z,10.05
2023-04-30T04:47:37.819Z,11.48
2023-04-30T04:50:24.753Z,11.10
2023-04-30T04:53:11.671Z,12.23
2023-04-30T04:55:58.463Z,12.57
2023-04-30T04:58:46.350Z,9.77
2023-04-30T05:01:33.268Z,10.90
2023-04-30T05:04:20.097Z,9.43
2023-04-30T05:07:08.121Z,10.10
2023-04-30T05:09:55.155Z,10.30
2023-04-30T05:12:42.258Z,9.60
2023-04-30T05:15:29.179Z,9.40
2023-04-30T05:18:16.364Z,10.17
2023-04-30T05:21:04.429Z,8.95
2023-04-30T05:23:51.332Z,9.65
2023-04-30T05:26:38.200Z,9.87
2023-04-30T05:29:25.202Z,9.83
2023-04-30T05:32:12.128Z,8.57
2023-04-30T05:35:00.785Z,8.80
2023-04-30T05:37:50.716Z,8.73
2023-04-30T05:40:41.180Z,9.13
2023-04-30T05:43:30.681Z,7.78
2023-04-30T05:46:19.995Z,6.97
2023-04-30T05:49:11.948Z,7.97
2023-04-30T05:51:58.960Z,9.18
2023-04-30T05:54:54.900Z,7.70
2023-04-30T05:57:41.912Z,8.50
2023-04-30T06:00:28.856Z,7.97
2023-04-30T06:03:18.826Z,7.13
2023-04-30T06:06:08.103Z,6.57
2023-04-30T06:08:58.313Z,6.60
2023-04-30T06:11:45.868Z,6.60
2023-04-30T06:14:32.888Z,6.57
2023-04-30T06:17:19.885Z,7.97
2023-04-30T06:20:08.173Z,6.97
2023-04-30T06:23:02.883Z,7.53
2023-04-30T06:25:53.223Z,6.60
2023-04-30T06:28:40.135Z,7.70
2023-04-30T06:31:27.318Z,6.63
2023-04-30T06:34:14.111Z,6.10
2023-04-30T06:37:01.053Z,7.28
2023-04-30T06:39:48.157Z,6.30
2023-04-30T06:42:35.990Z,6.20
2023-04-30T06:48:10.234Z,5.82
2023-04-30T06:50:57.460Z,5.65
2023-04-30T06:53:44.303Z,5.85
2023-04-30T06:56:31.194Z,5.63
2023-04-30T06:59:18.165Z,4.77
2023-04-30T07:02:05.247Z,5.20
2023-04-30T07:04:52.728Z,4.75
2023-04-30T07:07:39.665Z,4.68
2023-04-30T07:10:26.961Z,4.55
2023-04-30T07:13:13.758Z,4.38
2023-04-30T07:16:00.813Z,6.32
2023-04-30T07:18:49.208Z,7.57
2023-04-30T07:21:36.034Z,5.22
2023-04-30T07:24:22.873Z,4.80
2023-04-30T07:27:09.696Z,4.90
2023-04-30T07:29:56.883Z,6.47
2023-04-30T07:32:44.009Z,4.03
2023-04-30T07:35:31.185Z,4.10
2023-04-30T07:38:19.096Z,4.78
2023-04-30T07:41:06.350Z,4.45
2023-04-30T07:43:53.289Z,4.20
2023-04-30T07:46:40.384Z,3.80
2023-04-30T07:49:28.045Z,3.90
2023-04-30T07:52:14.893Z,4.22
2023-04-30T07:55:01.774Z,4.90
2023-04-30T07:57:48.631Z,3.93
2023-04-30T08:00:35.448Z,5.27
2023-04-30T08:03:22.499Z,3.97
2023-04-30T08:06:09.560Z,5.43
2023-04-30T08:08:56.548Z,5.15
2023-04-30T08:11:43.489Z,3.43
2023-04-30T08:14:31.058Z,3.10
2023-04-30T08:17:17.908Z,3.72
2023-04-30T08:20:05.648Z,2.83
2023-04-30T08:25:40.259Z,2.45
2023-04-30T08:28:27.111Z,3.10
2023-04-30T08:31:14.046Z,4.00
2023-04-30T08:34:01.081Z,3.33
2023-04-30T08:36:47.965Z,3.17
2023-04-30T08:39:35.033Z,3.13
2023-04-30T08:42:25.991Z,2.65
2023-04-30T08:45:14.524Z,2.65
2023-04-30T08:48:02.089Z,2.97
2023-04-30T08:50:49.191Z,5.03
2023-04-30T08:53:38.595Z,2.42
2023-04-30T08:56:26.828Z,2.55
2023-04-30T08:59:14.223Z,2.50
2023-04-30T09:02:02.354Z,3.15
2023-04-30T09:07:41.453Z,3.72
2023-04-30T09:10:34.119Z,3.15
2023-04-30T09:13:21.177Z,2.60
2023-04-30T09:16:08.173Z,3.38
2023-04-30T09:18:56.784Z,2.45
2023-04-30T09:21:43.671Z,2.40
2023-04-30T09:24:47.219Z,2.93
2023-04-30T09:27:34.285Z,2.50
2023-04-30T09:30:33.808Z,2.20
2023-04-30T09:33:20.727Z,2.67
2023-04-30T09:36:11.244Z,3.23
2023-04-30T09:39:10.309Z,2.80
2023-04-30T09:42:11.152Z,3.10
2023-04-30T09:44:58.506Z,3.20
2023-04-30T09:47:45.569Z,4.15
2023-04-30T09:50:41.384Z,4.63
2023-04-30T09:53:30.710Z,3.00
2023-04-30T09:56:24.321Z,4.47
2023-04-30T09:59:13.059Z,4.55
2023-04-30T10:02:02.550Z,5.28
2023-04-30T10:04:58.267Z,3.92
2023-04-30T10:07:45.748Z,3.45
2023-04-30T10:10:33.080Z,3.20
2023-04-30T10:13:21.865Z,2.92
2023-04-30T10:16:37.115Z,3.63
2023-04-30T10:19:25.882Z,2.63
2023-04-30T10:22:13.166Z,2.38
2023-04-30T10:25:01.502Z,2.35
2023-04-30T10:27:48.313Z,3.05
2023-04-30T10:30:38.433Z,2.40
2023-04-30T10:33:31.893Z,2.60
2023-04-30T10:36:32.152Z,2.22
2023-04-30T10:39:23.605Z,2.00
2023-04-30T10:42:11.547Z,3.88
2023-04-30T10:44:58.409Z,2.35
2023-04-30T10:47:46.214Z,1.67
2023-04-30T10:50:33.403Z,2.75
2023-04-30T10:53:23.021Z,1.85
2023-04-30T10:56:09.992Z,2.88
2023-04-30T10:59:01.233Z,1.73
2023-04-30T11:01:59.503Z,1.60
2023-04-30T11:05:09.341Z,1.50
2023-04-30T11:07:59.512Z,1.77
2023-04-30T11:11:01.664Z,2.17
2023-04-30T11:13:59.774Z,2.63
2023-04-30T11:16:50.591Z,2.20
2023-04-30T11:19:46.617Z,2.83
2023-04-30T11:22:36.469Z,1.75
2023-04-30T11:25:23.490Z,1.80
2023-04-30T11:28:25.847Z,1.70
2023-04-30T11:31:14.592Z,1.50
2023-04-30T11:34:03.645Z,2.08
2023-04-30T11:36:50.839Z,2.55
2023-04-30T11:39:39.644Z,1.80
2023-04-30T11:42:26.837Z,1.50
2023-04-30T11:45:20.972Z,1.73
2023-04-30T11:48:08.316Z,1.50
2023-04-30T11:50:55.207Z,1.67
2023-04-30T11:53:42.247Z,1.63
2023-04-30T11:56:29.046Z,1.80
2023-04-30T11:59:17.351Z,2.30
2023-04-30T12:02:05.318Z,1.77
2023-04-30T12:04:52.218Z,1.92
2023-04-30T12:07:39.560Z,1.73
2023-04-30T12:10:27.219Z,3.45
2023-04-30T12:16:01.755Z,2.78
2023-04-30T12:24:27.407Z,1.83
2023-04-30T12:27:15.237Z,7.07
2023-04-30T12:30:08.165Z,5.70
2023-04-30T12:32:58.932Z,3.80
2023-04-30T12:35:45.999Z,2.88
2023-04-30T12:38:32.855Z,2.30
2023-04-30T12:41:21.159Z,1.87
2023-04-30T12:44:42.138Z,3.15
2023-04-30T12:47:30.185Z,1.73
2023-04-30T12:50:17.332Z,2.88
2023-04-30T12:53:10.480Z,4.10
2023-04-30T12:56:15.343Z,2.30
2023-04-30T12:59:02.301Z,3.78
2023-04-30T13:01:49.133Z,2.17
2023-04-30T13:04:36.594Z,2.05
2023-04-30T13:07:23.530Z,1.70
2023-04-30T13:10:11.873Z,2.13
2023-04-30T13:12:59.536Z,2.00
2023-04-30T13:18:33.640Z,1.70
2023-04-30T13:21:21.509Z,1.77
2023-04-30T13:24:08.402Z,2.38
2023-04-30T13:26:55.441Z,2.03
2023-04-30T13:29:42.363Z,4.13
2023-04-30T13:32:29.356Z,2.20
2023-04-30T13:35:16.640Z,2.00
2023-04-30T13:38:03.580Z,2.55
2023-04-30T13:40:50.484Z,2.00
2023-04-30T13:43:41.447Z,3.03
2023-04-30T13:46:30.328Z,2.65
2023-04-30T13:49:17.263Z,2.22
2023-04-30T13:52:04.517Z,2.58
2023-04-30T13:54:54.410Z,2.22
2023-04-30T13:57:41.337Z,1.88
2023-04-30T14:00:28.186Z,1.95
2023-04-30T14:03:15.360Z,1.95
2023-04-30T14:06:02.207Z,1.63
2023-04-30T14:08:49.162Z,2.40
2023-04-30T14:11:36.125Z,2.67
2023-04-30T14:14:23.116Z,2.30
2023-04-30T14:17:10.067Z,2.00
2023-04-30T14:19:57.898Z,2.05
2023-04-30T14:22:44.970Z,1.77
2023-04-30T14:25:31.854Z,2.28
2023-04-30T14:28:18.762Z,1.70
2023-04-30T14:31:05.680Z,1.77
2023-04-30T14:33:52.600Z,2.05
2023-04-30T14:36:39.823Z,2.83
2023-04-30T14:39:26.833Z,1.70
2023-04-30T14:42:13.749Z,1.90
2023-04-30T14:45:00.563Z,1.75
2023-04-30T14:47:47.632Z,2.00
2023-04-30T14:50:34.501Z,2.45
2023-04-30T14:53:21.368Z,1.83
2023-04-30T14:56:08.449Z,1.70
2023-04-30T14:58:55.301Z,1.40
2023-04-30T15:01:42.660Z,1.98
2023-04-30T15:04:29.691Z,1.52
2023-04-30T15:07:16.660Z,2.08
2023-04-30T15:10:03.990Z,2.53
2023-04-30T15:12:51.528Z,2.30
2023-04-30T15:15:39.797Z,1.70
2023-04-30T15:18:26.756Z,1.52
2023-04-30T15:21:13.696Z,2.28
2023-04-30T15:24:01.071Z,2.30
2023-04-30T15:26:48.104Z,2.13
2023-04-30T15:29:34.921Z,1.58
2023-04-30T15:32:21.844Z,1.80
2023-04-30T15:35:09.118Z,1.50
2023-04-30T15:37:56.133Z,1.75
2023-04-30T15:40:43.128Z,2.22
2023-04-30T15:43:32.250Z,1.55
2023-04-30T15:46:19.474Z,1.60
2023-04-30T15:49:06.420Z,2.22
2023-04-30T15:51:53.335Z,1.53
2023-04-30T15:54:40.536Z,1.80
2023-04-30T15:57:27.674Z,2.05
2023-04-30T16:00:15.277Z,1.70
2023-04-30T16:03:02.174Z,1.90
2023-04-30T16:05:49.177Z,1.80
2023-04-30T16:08:36.854Z,1.60
2023-04-30T16:14:12.117Z,1.77
2023-04-30T16:16:59.077Z,2.03
2023-04-30T16:19:46.243Z,1.40
2023-04-30T16:22:34.278Z,1.83
2023-04-30T16:25:21.171Z,1.63
2023-04-30T16:28:08.161Z,2.73
2023-04-30T16:30:56.033Z,1.88
2023-04-30T16:33:43.270Z,1.88
2023-04-30T16:36:30.324Z,1.52
2023-04-30T16:39:17.642Z,1.80
2023-04-30T16:42:04.493Z,1.70
2023-04-30T16:44:51.371Z,1.70
2023-04-30T16:47:38.333Z,2.37
2023-04-30T16:50:26.882Z,2.10
2023-04-30T16:53:13.746Z,1.80
2023-04-30T16:56:00.663Z,2.17
2023-04-30T16:58:47.450Z,1.70
2023-04-30T17:01:34.550Z,2.37
2023-04-30T17:04:21.381Z,2.10
2023-04-30T17:07:08.590Z,2.63
2023-04-30T17:09:55.935Z,2.78
2023-04-30T17:15:30.252Z,2.13
2023-04-30T17:18:17.214Z,2.22
2023-04-30T17:21:04.349Z,2.55
2023-04-30T17:23:51.256Z,2.20
2023-04-30T17:26:38.166Z,2.88
2023-04-30T17:29:25.069Z,3.83
2023-04-30T17:32:11.938Z,3.30
2023-04-30T17:35:00.210Z,2.00
2023-04-30T17:37:47.298Z,2.47
2023-04-30T17:40:34.264Z,3.08
2023-04-30T17:43:21.134Z,2.77
2023-04-30T17:46:08.027Z,1.97
2023-04-30T17:48:54.914Z,2.33
2023-04-30T17:51:41.826Z,2.77
2023-04-30T17:54:30.705Z,2.00
2023-04-30T17:57:17.622Z,2.83
2023-04-30T18:00:05.396Z,2.30
2023-04-30T18:05:39.655Z,2.20
2023-04-30T18:08:26.847Z,2.95
2023-04-30T18:11:13.660Z,2.38
2023-04-30T18:14:00.611Z,2.03
2023-04-30T18:16:47.800Z,2.22
2023-04-30T18:19:38.646Z,2.30
2023-04-30T18:22:25.533Z,2.40
2023-04-30T18:25:13.480Z,2.30
2023-04-30T18:28:01.386Z,3.50
2023-04-30T18:30:48.288Z,2.67
2023-04-30T18:33:35.119Z,2.20
2023-04-30T18:36:23.605Z,2.77
2023-04-30T18:39:12.481Z,2.00
2023-04-30T18:41:59.529Z,2.17
2023-04-30T18:44:46.322Z,3.53
2023-04-30T18:47:33.738Z,2.25
2023-04-30T18:50:21.588Z,2.10
2023-04-30T18:55:57.626Z,2.67
2023-04-30T18:58:45.750Z,4.38
2023-04-30T19:01:32.817Z,2.50
2023-04-30T19:04:19.717Z,2.42
2023-04-30T19:07:09.713Z,3.63
2023-04-30T19:09:59.785Z,2.58
2023-04-30T19:12:50.592Z,3.30
2023-04-30T19:15:37.560Z,2.90
2023-04-30T19:18:26.872Z,3.60
2023-04-30T19:21:16.109Z,3.30
2023-04-30T19:24:14.936Z,3.10
2023-04-30T19:27:04.792Z,4.93
2023-04-30T19:29:53.377Z,3.58
2023-04-30T19:32:40.948Z,2.88
2023-04-30T19:35:31.781Z,4.25
2023-04-30T19:38:19.373Z,3.97
2023-04-30T19:41:07.653Z,3.38
2023-04-30T19:43:54.696Z,3.00
2023-04-30T19:46:42.586Z,3.10
2023-04-30T19:49:29.702Z,3.97
2023-04-30T19:52:22.474Z,3.05
2023-04-30T19:55:09.834Z,3.33
2023-04-30T19:57:59.824Z,3.15
2023-04-30T20:00:46.925Z,3.35
2023-04-30T20:03:35.751Z,3.55
2023-04-30T20:06:22.956Z,3.20
2023-04-30T20:09:10.091Z,5.25
2023-04-30T20:11:56.988Z,5.50
2023-04-30T20:14:43.901Z,2.88
2023-04-30T20:17:36.338Z,2.63
2023-04-30T20:20:34.713Z,3.83
2023-04-30T20:26:26.026Z,3.00
2023-04-30T20:33:31.826Z,4.32
2023-04-30T20:36:10.521Z,3.20
2023-04-30T20:39:26.823Z,2.70
2023-04-30T20:42:23.933Z,3.00
2023-04-30T20:45:11.371Z,3.25
2023-04-30T20:47:58.715Z,3.63
2023-04-30T20:50:48.587Z,3.58
2023-04-30T20:53:42.002Z,4.32
2023-04-30T20:56:31.427Z,2.78
2023-04-30T20:59:18.375Z,3.38
2023-04-30T21:02:10.345Z,2.93
2023-04-30T21:05:07.553Z,3.42
2023-04-30T21:07:54.511Z,4.47
2023-04-30T21:10:43.822Z,4.13
2023-04-30T21:13:31.204Z,3.75
2023-04-30T21:16:18.653Z,5.28
2023-04-30T21:19:05.580Z,3.00
2023-04-30T21:21:53.204Z,4.37
2023-04-30T21:24:40.058Z,11.68
2023-04-30T21:27:31.039Z,10.30
2023-04-30T21:30:18.323Z,8.23
2023-04-30T21:33:05.440Z,6.63
2023-04-30T21:35:54.903Z,3.90
2023-04-30T21:38:46.087Z,3.20
2023-04-30T21:41:35.371Z,3.80
2023-04-30T21:44:22.466Z,3.60
2023-04-30T21:47:10.563Z,3.55
2023-04-30T21:49:58.814Z,3.08
2023-04-30T21:52:52.193Z,3.38
2023-04-30T21:55:44.945Z,5.97
2023-04-30T21:59:29.353Z,3.92
2023-04-30T22:02:23.295Z,3.10
2023-04-30T22:05:39.208Z,3.20
2023-04-30T22:11:42.795Z,4.80
2023-04-30T22:14:36.177Z,3.80
2023-04-30T22:17:23.595Z,3.75
2023-04-30T22:20:11.234Z,2.97
2023-04-30T22:23:06.290Z,3.00
2023-04-30T22:25:53.474Z,2.72
2023-04-30T22:28:44.932Z,3.47
2023-04-30T22:31:40.793Z,2.90
2023-04-30T22:34:28.372Z,4.13
2023-04-30T22:37:15.365Z,3.28
2023-04-30T22:40:02.168Z,3.30
2023-04-30T22:42:49.195Z,3.77
2023-04-30T22:45:38.352Z,3.27
2023-04-30T22:48:29.146Z,3.33
2023-04-30T22:51:15.947Z,4.40
2023-04-30T22:54:06.611Z,4.68
2023-04-30T22:56:53.439Z,3.00
2023-04-30T22:59:40.486Z,3.50
2023-04-30T23:02:28.772Z,4.13
2023-04-30T23:05:15.880Z,3.55
2023-04-30T23:08:03.137Z,3.17
2023-04-30T23:10:50.008Z,3.83
2023-04-30T23:13:37.257Z,4.05
2023-04-30T23:16:24.158Z,4.20
2023-04-30T23:19:11.811Z,3.10
2023-04-30T23:21:58.684Z,5.28
2023-04-30T23:24:45.704Z,2.72
2023-04-30T23:27:32.780Z,4.72
2023-04-30T23:30:19.595Z,2.83
2023-04-30T23:33:06.512Z,2.85
2023-04-30T23:35:53.843Z,3.83
2023-04-30T23:38:42.907Z,3.42
2023-04-30T23:41:29.792Z,3.90
2023-04-30T23:44:16.592Z,3.07
2023-04-30T23:47:03.519Z,3.13
2023-04-30T23:49:50.387Z,3.23
2023-04-30T23:52:37.217Z,3.30
2023-04-30T23:55:24.239Z,3.75
2023-04-30T23:58:11.085Z,4.53
